sensor_id;sensor_type;location;lat;lon;timestamp;pressure;altitude;pressure_sealevel;temperature;humidity
35848;BME280;22332;51.954;20.118;2022-07-23T00:00:24;100171.64;;;19.51;65.07
35848;BME280;22332;51.954;20.118;2022-07-23T00:03:40;100175.11;;;19.48;65.22
35848;BME280;22332;51.954;20.118;2022-07-23T00:06:46;100181.69;;;19.33;65.29
35848;BME280;22332;51.954;20.118;2022-07-23T00:09:51;100183.86;;;19.29;65.53
35848;BME280;22332;51.954;20.118;2022-07-23T00:12:57;100182.77;;;19.32;65.44
35848;BME280;22332;51.954;20.118;2022-07-23T00:16:02;100187.42;;;19.34;65.72
35848;BME280;22332;51.954;20.118;2022-07-23T00:19:08;100187.40;;;19.30;65.56
35848;BME280;22332;51.954;20.118;2022-07-23T00:22:13;100191.44;;;19.29;65.78
35848;BME280;22332;51.954;20.118;2022-07-23T00:25:19;100192.16;;;19.24;65.67
35848;BME280;22332;51.954;20.118;2022-07-23T00:28:24;100193.50;;;19.19;65.77
35848;BME280;22332;51.954;20.118;2022-07-23T00:31:30;100191.55;;;19.18;65.82
35848;BME280;22332;51.954;20.118;2022-07-23T00:34:35;100193.79;;;19.16;65.93
35848;BME280;22332;51.954;20.118;2022-07-23T00:37:40;100191.97;;;19.16;65.95
35848;BME280;22332;51.954;20.118;2022-07-23T00:40:46;100194.27;;;19.14;65.95
35848;BME280;22332;51.954;20.118;2022-07-23T00:43:51;100198.55;;;19.11;66.05
35848;BME280;22332;51.954;20.118;2022-07-23T00:46:58;100196.40;;;19.09;66.20
35848;BME280;22332;51.954;20.118;2022-07-23T00:50:07;100196.48;;;19.06;66.09
35848;BME280;22332;51.954;20.118;2022-07-23T00:53:13;100193.48;;;18.93;66.29
35848;BME280;22332;51.954;20.118;2022-07-23T00:56:20;100192.59;;;18.84;66.32
35848;BME280;22332;51.954;20.118;2022-07-23T00:59:25;100196.12;;;18.80;66.48
35848;BME280;22332;51.954;20.118;2022-07-23T01:02:30;100195.41;;;18.83;66.55
35848;BME280;22332;51.954;20.118;2022-07-23T01:05:36;100193.50;;;18.83;66.59
35848;BME280;22332;51.954;20.118;2022-07-23T01:08:42;100193.75;;;18.82;66.70
35848;BME280;22332;51.954;20.118;2022-07-23T01:11:48;100196.22;;;18.77;66.75
35848;BME280;22332;51.954;20.118;2022-07-23T01:14:56;100192.27;;;18.74;66.66
35848;BME280;22332;51.954;20.118;2022-07-23T01:18:05;100195.84;;;18.68;66.87
35848;BME280;22332;51.954;20.118;2022-07-23T01:21:13;100191.98;;;18.64;66.95
35848;BME280;22332;51.954;20.118;2022-07-23T01:24:19;100195.45;;;18.63;67.15
35848;BME280;22332;51.954;20.118;2022-07-23T01:27:52;100198.08;;;18.66;67.25
35848;BME280;22332;51.954;20.118;2022-07-23T01:30:58;100191.73;;;18.70;67.33
35848;BME280;22332;51.954;20.118;2022-07-23T01:34:07;100194.30;;;18.73;67.24
35848;BME280;22332;51.954;20.118;2022-07-23T01:37:14;100190.69;;;18.75;67.33
35848;BME280;22332;51.954;20.118;2022-07-23T01:40:19;100186.11;;;18.71;67.40
35848;BME280;22332;51.954;20.118;2022-07-23T01:43:25;100179.55;;;18.61;67.32
35848;BME280;22332;51.954;20.118;2022-07-23T01:46:30;100183.71;;;18.55;67.61
35848;BME280;22332;51.954;20.118;2022-07-23T01:49:36;100189.52;;;18.54;67.70
35848;BME280;22332;51.954;20.118;2022-07-23T01:53:20;100193.64;;;18.58;67.74
35848;BME280;22332;51.954;20.118;2022-07-23T01:56:26;100187.48;;;18.59;67.77
35848;BME280;22332;51.954;20.118;2022-07-23T01:59:32;100188.86;;;18.58;67.82
35848;BME280;22332;51.954;20.118;2022-07-23T02:02:37;100185.11;;;18.52;67.82
35848;BME280;22332;51.954;20.118;2022-07-23T02:05:43;100183.15;;;18.48;68.06
35848;BME280;22332;51.954;20.118;2022-07-23T02:08:48;100180.03;;;18.44;68.05
35848;BME280;22332;51.954;20.118;2022-07-23T02:11:54;100181.11;;;18.44;68.19
35848;BME280;22332;51.954;20.118;2022-07-23T02:15:05;100176.20;;;18.43;68.23
35848;BME280;22332;51.954;20.118;2022-07-23T02:18:11;100168.11;;;18.42;68.27
35848;BME280;22332;51.954;20.118;2022-07-23T02:21:16;100168.84;;;18.35;68.29
35848;BME280;22332;51.954;20.118;2022-07-23T02:24:22;100165.60;;;18.31;68.40
35848;BME280;22332;51.954;20.118;2022-07-23T02:27:28;100164.30;;;18.29;68.46
35848;BME280;22332;51.954;20.118;2022-07-23T02:30:34;100169.58;;;18.27;68.66
35848;BME280;22332;51.954;20.118;2022-07-23T02:33:39;100171.56;;;18.24;68.69
35848;BME280;22332;51.954;20.118;2022-07-23T02:36:45;100174.67;;;18.22;68.82
35848;BME280;22332;51.954;20.118;2022-07-23T02:39:50;100174.56;;;18.22;68.84
35848;BME280;22332;51.954;20.118;2022-07-23T02:42:56;100178.26;;;18.23;68.94
35848;BME280;22332;51.954;20.118;2022-07-23T02:46:02;100177.77;;;18.25;68.99
35848;BME280;22332;51.954;20.118;2022-07-23T02:49:08;100180.39;;;18.27;69.01
35848;BME280;22332;51.954;20.118;2022-07-23T02:52:14;100185.25;;;18.30;69.23
35848;BME280;22332;51.954;20.118;2022-07-23T02:55:20;100185.52;;;18.33;69.31
35848;BME280;22332;51.954;20.118;2022-07-23T02:58:25;100185.09;;;18.35;69.27
35848;BME280;22332;51.954;20.118;2022-07-23T03:01:31;100186.05;;;18.32;69.32
35848;BME280;22332;51.954;20.118;2022-07-23T03:04:37;100183.77;;;18.35;69.39
35848;BME280;22332;51.954;20.118;2022-07-23T03:07:43;100185.27;;;18.41;69.46
35848;BME280;22332;51.954;20.118;2022-07-23T03:10:48;100185.39;;;18.44;69.53
35848;BME280;22332;51.954;20.118;2022-07-23T03:13:54;100180.57;;;18.46;69.64
35848;BME280;22332;51.954;20.118;2022-07-23T03:16:59;100185.60;;;18.52;69.67
35848;BME280;22332;51.954;20.118;2022-07-23T03:20:07;100187.85;;;18.57;69.75
35848;BME280;22332;51.954;20.118;2022-07-23T03:23:13;100189.45;;;18.60;69.85
35848;BME280;22332;51.954;20.118;2022-07-23T03:26:18;100189.27;;;18.64;69.83
35848;BME280;22332;51.954;20.118;2022-07-23T03:29:24;100188.20;;;18.69;70.09
35848;BME280;22332;51.954;20.118;2022-07-23T03:32:29;100188.98;;;18.78;70.10
35848;BME280;22332;51.954;20.118;2022-07-23T03:35:35;100186.13;;;18.86;70.19
35848;BME280;22332;51.954;20.118;2022-07-23T03:39:02;100184.96;;;18.97;70.23
35848;BME280;22332;51.954;20.118;2022-07-23T03:42:08;100187.66;;;19.03;70.22
35848;BME280;22332;51.954;20.118;2022-07-23T03:45:14;100182.57;;;19.11;70.42
35848;BME280;22332;51.954;20.118;2022-07-23T03:48:20;100185.81;;;19.31;70.10
35848;BME280;22332;51.954;20.118;2022-07-23T03:51:26;100187.76;;;19.48;70.01
35848;BME280;22332;51.954;20.118;2022-07-23T03:54:31;100183.98;;;19.69;69.92
35848;BME280;22332;51.954;20.118;2022-07-23T03:57:36;100178.78;;;19.92;69.80
35848;BME280;22332;51.954;20.118;2022-07-23T04:00:42;100175.41;;;20.12;69.71
35848;BME280;22332;51.954;20.118;2022-07-23T04:03:47;100173.59;;;20.35;69.59
35848;BME280;22332;51.954;20.118;2022-07-23T04:06:53;100174.13;;;20.55;69.53
35848;BME280;22332;51.954;20.118;2022-07-23T04:09:59;100168.95;;;20.76;69.46
35848;BME280;22332;51.954;20.118;2022-07-23T04:13:05;100171.05;;;21.02;69.34
35848;BME280;22332;51.954;20.118;2022-07-23T04:16:11;100170.16;;;21.31;69.10
35848;BME280;22332;51.954;20.118;2022-07-23T04:19:16;100169.29;;;21.62;68.92
35848;BME280;22332;51.954;20.118;2022-07-23T04:22:32;100172.23;;;21.90;68.81
35848;BME280;22332;51.954;20.118;2022-07-23T04:25:37;100174.25;;;22.13;68.73
35848;BME280;22332;51.954;20.118;2022-07-23T04:28:43;100172.27;;;22.36;68.48
35848;BME280;22332;51.954;20.118;2022-07-23T04:31:49;100172.16;;;22.55;68.50
35848;BME280;22332;51.954;20.118;2022-07-23T04:34:55;100169.86;;;22.73;68.42
35848;BME280;22332;51.954;20.118;2022-07-23T04:38:01;100169.80;;;22.86;68.23
35848;BME280;22332;51.954;20.118;2022-07-23T04:41:06;100173.22;;;22.92;68.18
35848;BME280;22332;51.954;20.118;2022-07-23T04:44:12;100173.88;;;22.97;67.98
35848;BME280;22332;51.954;20.118;2022-07-23T04:47:17;100166.67;;;22.97;67.69
35848;BME280;22332;51.954;20.118;2022-07-23T04:50:23;100165.69;;;22.97;67.72
35848;BME280;22332;51.954;20.118;2022-07-23T04:53:30;100166.84;;;22.95;67.54
35848;BME280;22332;51.954;20.118;2022-07-23T04:56:38;100155.88;;;22.88;67.52
35848;BME280;22332;51.954;20.118;2022-07-23T04:59:44;100154.73;;;22.91;67.63
35848;BME280;22332;51.954;20.118;2022-07-23T05:02:50;100159.13;;;22.91;67.66
35848;BME280;22332;51.954;20.118;2022-07-23T05:05:55;100161.14;;;22.95;67.28
35848;BME280;22332;51.954;20.118;2022-07-23T05:09:00;100163.31;;;22.93;67.11
35848;BME280;22332;51.954;20.118;2022-07-23T05:12:08;100167.01;;;23.01;67.20
35848;BME280;22332;51.954;20.118;2022-07-23T05:15:13;100170.35;;;23.18;67.17
35848;BME280;22332;51.954;20.118;2022-07-23T05:18:19;100165.31;;;23.25;66.64
35848;BME280;22332;51.954;20.118;2022-07-23T05:21:24;100163.45;;;23.27;66.93
35848;BME280;22332;51.954;20.118;2022-07-23T05:24:30;100166.90;;;23.48;66.81
35848;BME280;22332;51.954;20.118;2022-07-23T05:27:36;100166.56;;;23.69;66.86
35848;BME280;22332;51.954;20.118;2022-07-23T05:30:41;100163.98;;;23.93;66.41
35848;BME280;22332;51.954;20.118;2022-07-23T05:33:50;100161.90;;;23.94;66.03
35848;BME280;22332;51.954;20.118;2022-07-23T05:36:55;100159.20;;;23.99;66.01
35848;BME280;22332;51.954;20.118;2022-07-23T05:40:03;100162.15;;;24.00;65.71
35848;BME280;22332;51.954;20.118;2022-07-23T05:43:10;100163.54;;;24.04;65.91
35848;BME280;22332;51.954;20.118;2022-07-23T05:46:16;100159.14;;;24.10;65.50
35848;BME280;22332;51.954;20.118;2022-07-23T05:49:24;100161.79;;;24.09;65.28
35848;BME280;22332;51.954;20.118;2022-07-23T05:52:53;100165.79;;;24.02;65.40
35848;BME280;22332;51.954;20.118;2022-07-23T05:55:58;100159.69;;;24.07;65.59
35848;BME280;22332;51.954;20.118;2022-07-23T05:59:04;100163.00;;;24.29;65.19
35848;BME280;22332;51.954;20.118;2022-07-23T06:02:11;100155.06;;;24.34;64.71
35848;BME280;22332;51.954;20.118;2022-07-23T06:05:17;100156.01;;;24.44;65.01
35848;BME280;22332;51.954;20.118;2022-07-23T06:08:24;100152.66;;;24.54;64.27
35848;BME280;22332;51.954;20.118;2022-07-23T06:11:30;100154.42;;;24.58;64.52
35848;BME280;22332;51.954;20.118;2022-07-23T06:14:36;100152.47;;;24.69;64.27
35848;BME280;22332;51.954;20.118;2022-07-23T06:17:41;100147.48;;;24.79;64.14
35848;BME280;22332;51.954;20.118;2022-07-23T06:20:46;100147.27;;;24.87;64.03
35848;BME280;22332;51.954;20.118;2022-07-23T06:23:52;100146.12;;;24.94;64.27
35848;BME280;22332;51.954;20.118;2022-07-23T06:26:57;100148.59;;;25.02;64.13
35848;BME280;22332;51.954;20.118;2022-07-23T06:30:03;100146.31;;;25.05;63.11
35848;BME280;22332;51.954;20.118;2022-07-23T06:33:09;100144.91;;;25.01;62.64
35848;BME280;22332;51.954;20.118;2022-07-23T06:36:16;100138.67;;;25.05;63.36
35848;BME280;22332;51.954;20.118;2022-07-23T06:39:21;100138.49;;;25.15;63.34
35848;BME280;22332;51.954;20.118;2022-07-23T06:42:27;100136.51;;;25.24;62.94
35848;BME280;22332;51.954;20.118;2022-07-23T06:45:35;100135.91;;;25.32;62.68
35848;BME280;22332;51.954;20.118;2022-07-23T06:48:41;100135.53;;;25.41;62.57
35848;BME280;22332;51.954;20.118;2022-07-23T06:51:46;100128.05;;;25.46;61.96
35848;BME280;22332;51.954;20.118;2022-07-23T06:54:51;100121.82;;;25.51;61.78
35848;BME280;22332;51.954;20.118;2022-07-23T06:57:57;100114.85;;;25.58;61.82
35848;BME280;22332;51.954;20.118;2022-07-23T07:01:02;100117.39;;;25.60;59.64
35848;BME280;22332;51.954;20.118;2022-07-23T07:04:08;100116.98;;;25.62;60.65
35848;BME280;22332;51.954;20.118;2022-07-23T07:07:13;100118.06;;;25.66;59.97
35848;BME280;22332;51.954;20.118;2022-07-23T07:10:19;100114.11;;;25.70;59.33
35848;BME280;22332;51.954;20.118;2022-07-23T07:13:24;100114.98;;;25.75;59.46
35848;BME280;22332;51.954;20.118;2022-07-23T07:16:30;100118.13;;;25.83;59.53
35848;BME280;22332;51.954;20.118;2022-07-23T07:19:35;100114.51;;;25.91;59.47
35848;BME280;22332;51.954;20.118;2022-07-23T07:22:41;100118.38;;;25.99;59.45
35848;BME280;22332;51.954;20.118;2022-07-23T07:25:46;100125.73;;;26.09;59.08
35848;BME280;22332;51.954;20.118;2022-07-23T07:28:51;100126.17;;;26.20;58.68
35848;BME280;22332;51.954;20.118;2022-07-23T07:31:57;100124.49;;;26.28;58.27
35848;BME280;22332;51.954;20.118;2022-07-23T07:35:03;100118.69;;;26.35;58.00
35848;BME280;22332;51.954;20.118;2022-07-23T07:38:08;100118.37;;;26.43;58.31
35848;BME280;22332;51.954;20.118;2022-07-23T07:41:14;100118.60;;;26.54;58.18
35848;BME280;22332;51.954;20.118;2022-07-23T07:44:19;100115.48;;;26.61;57.84
35848;BME280;22332;51.954;20.118;2022-07-23T07:47:25;100113.60;;;26.68;57.57
35848;BME280;22332;51.954;20.118;2022-07-23T07:50:30;100114.20;;;26.77;57.45
35848;BME280;22332;51.954;20.118;2022-07-23T07:53:35;100115.08;;;26.86;56.94
35848;BME280;22332;51.954;20.118;2022-07-23T07:56:41;100120.64;;;26.91;55.65
35848;BME280;22332;51.954;20.118;2022-07-23T07:59:46;100122.77;;;26.97;56.53
35848;BME280;22332;51.954;20.118;2022-07-23T08:02:53;100123.61;;;27.06;56.79
35848;BME280;22332;51.954;20.118;2022-07-23T08:05:59;100127.17;;;27.16;55.94
35848;BME280;22332;51.954;20.118;2022-07-23T08:09:04;100129.39;;;27.21;55.24
35848;BME280;22332;51.954;20.118;2022-07-23T08:12:10;100134.61;;;27.23;54.12
35848;BME280;22332;51.954;20.118;2022-07-23T08:15:18;100130.27;;;27.28;54.54
35848;BME280;22332;51.954;20.118;2022-07-23T08:18:24;100137.19;;;27.27;54.78
35848;BME280;22332;51.954;20.118;2022-07-23T08:21:29;100136.44;;;27.32;55.00
35848;BME280;22332;51.954;20.118;2022-07-23T08:24:35;100138.64;;;27.35;54.04
35848;BME280;22332;51.954;20.118;2022-07-23T08:27:40;100140.96;;;27.28;53.84
35848;BME280;22332;51.954;20.118;2022-07-23T08:30:46;100141.70;;;27.24;53.89
35848;BME280;22332;51.954;20.118;2022-07-23T08:33:52;100134.92;;;27.27;54.41
35848;BME280;22332;51.954;20.118;2022-07-23T08:36:58;100134.47;;;27.34;53.92
35848;BME280;22332;51.954;20.118;2022-07-23T08:40:04;100129.05;;;27.36;54.01
35848;BME280;22332;51.954;20.118;2022-07-23T08:43:12;100132.71;;;27.45;53.57
35848;BME280;22332;51.954;20.118;2022-07-23T08:46:20;100133.54;;;27.47;52.50
35848;BME280;22332;51.954;20.118;2022-07-23T08:49:26;100132.66;;;27.47;51.49
35848;BME280;22332;51.954;20.118;2022-07-23T08:52:32;100129.40;;;27.51;51.62
35848;BME280;22332;51.954;20.118;2022-07-23T08:55:38;100129.19;;;27.58;51.58
35848;BME280;22332;51.954;20.118;2022-07-23T08:58:43;100125.88;;;27.68;51.03
35848;BME280;22332;51.954;20.118;2022-07-23T09:01:49;100115.27;;;27.80;52.08
35848;BME280;22332;51.954;20.118;2022-07-23T09:04:54;100111.54;;;27.95;51.68
35848;BME280;22332;51.954;20.118;2022-07-23T09:08:10;100107.27;;;28.09;51.01
35848;BME280;22332;51.954;20.118;2022-07-23T09:11:18;100106.35;;;28.16;50.34
35848;BME280;22332;51.954;20.118;2022-07-23T09:14:38;100098.01;;;28.27;51.01
35848;BME280;22332;51.954;20.118;2022-07-23T09:17:44;100098.72;;;28.35;48.84
35848;BME280;22332;51.954;20.118;2022-07-23T09:20:50;100092.78;;;28.34;48.59
35848;BME280;22332;51.954;20.118;2022-07-23T09:24:03;100087.41;;;28.39;48.85
35848;BME280;22332;51.954;20.118;2022-07-23T09:27:08;100083.13;;;28.45;48.14
35848;BME280;22332;51.954;20.118;2022-07-23T09:30:14;100083.28;;;28.48;47.72
35848;BME280;22332;51.954;20.118;2022-07-23T09:33:20;100080.82;;;28.52;48.11
35848;BME280;22332;51.954;20.118;2022-07-23T09:36:30;100079.35;;;28.54;46.40
35848;BME280;22332;51.954;20.118;2022-07-23T09:39:35;100073.20;;;28.58;47.97
35848;BME280;22332;51.954;20.118;2022-07-23T09:42:41;100071.38;;;28.65;45.57
35848;BME280;22332;51.954;20.118;2022-07-23T09:46:18;100067.42;;;28.68;47.54
35848;BME280;22332;51.954;20.118;2022-07-23T09:49:24;100064.96;;;28.78;47.28
35848;BME280;22332;51.954;20.118;2022-07-23T09:52:31;100063.98;;;28.95;47.81
35848;BME280;22332;51.954;20.118;2022-07-23T09:55:37;100059.96;;;29.13;47.46
35848;BME280;22332;51.954;20.118;2022-07-23T09:58:45;100058.52;;;29.33;47.08
35848;BME280;22332;51.954;20.118;2022-07-23T10:01:53;100051.70;;;29.43;46.50
35848;BME280;22332;51.954;20.118;2022-07-23T10:05:01;100058.29;;;29.36;44.97
35848;BME280;22332;51.954;20.118;2022-07-23T10:08:24;100056.80;;;29.25;46.05
35848;BME280;22332;51.954;20.118;2022-07-23T10:11:56;100055.98;;;29.41;45.73
35848;BME280;22332;51.954;20.118;2022-07-23T10:15:17;100049.73;;;29.65;45.82
35848;BME280;22332;51.954;20.118;2022-07-23T10:18:23;100044.27;;;29.81;44.46
35848;BME280;22332;51.954;20.118;2022-07-23T10:21:39;100047.16;;;29.85;44.76
35848;BME280;22332;51.954;20.118;2022-07-23T10:24:58;100037.11;;;29.90;45.07
35848;BME280;22332;51.954;20.118;2022-07-23T10:28:26;100030.36;;;29.95;44.95
35848;BME280;22332;51.954;20.118;2022-07-23T10:31:47;100035.53;;;30.01;45.05
35848;BME280;22332;51.954;20.118;2022-07-23T10:35:05;100033.89;;;30.06;44.43
35848;BME280;22332;51.954;20.118;2022-07-23T10:38:18;100030.40;;;30.02;44.84
35848;BME280;22332;51.954;20.118;2022-07-23T10:41:36;100034.07;;;30.04;44.43
35848;BME280;22332;51.954;20.118;2022-07-23T10:44:44;100033.38;;;30.03;43.96
35848;BME280;22332;51.954;20.118;2022-07-23T10:47:51;100026.41;;;30.05;44.35
35848;BME280;22332;51.954;20.118;2022-07-23T10:51:11;100019.27;;;30.10;43.88
35848;BME280;22332;51.954;20.118;2022-07-23T10:54:23;100022.09;;;30.15;44.06
35848;BME280;22332;51.954;20.118;2022-07-23T10:57:29;100020.95;;;30.19;44.11
35848;BME280;22332;51.954;20.118;2022-07-23T11:00:36;100021.33;;;30.26;42.19
35848;BME280;22332;51.954;20.118;2022-07-23T11:03:42;100015.94;;;30.25;42.71
35848;BME280;22332;51.954;20.118;2022-07-23T11:07:09;100013.95;;;30.35;42.12
35848;BME280;22332;51.954;20.118;2022-07-23T11:10:35;100010.77;;;30.44;42.85
35848;BME280;22332;51.954;20.118;2022-07-23T11:13:49;100004.56;;;30.62;42.59
35848;BME280;22332;51.954;20.118;2022-07-23T11:16:56;100000.88;;;30.80;43.01
35848;BME280;22332;51.954;20.118;2022-07-23T11:20:19;99996.05;;;31.03;42.79
35848;BME280;22332;51.954;20.118;2022-07-23T11:23:59;99997.46;;;31.24;42.33
35848;BME280;22332;51.954;20.118;2022-07-23T11:27:06;99990.73;;;31.33;42.04
35848;BME280;22332;51.954;20.118;2022-07-23T11:30:41;99989.14;;;31.32;42.33
35848;BME280;22332;51.954;20.118;2022-07-23T11:33:47;99986.67;;;31.35;41.56
35848;BME280;22332;51.954;20.118;2022-07-23T11:37:26;99985.11;;;31.36;41.56
35848;BME280;22332;51.954;20.118;2022-07-23T11:40:32;99984.77;;;31.44;42.04
35848;BME280;22332;51.954;20.118;2022-07-23T11:43:39;99978.86;;;31.57;41.69
35848;BME280;22332;51.954;20.118;2022-07-23T11:46:55;99979.25;;;31.77;40.89
35848;BME280;22332;51.954;20.118;2022-07-23T11:50:03;99975.95;;;31.83;39.54
35848;BME280;22332;51.954;20.118;2022-07-23T11:53:10;99972.71;;;31.75;39.26
35848;BME280;22332;51.954;20.118;2022-07-23T11:56:16;99963.47;;;31.60;39.22
35848;BME280;22332;51.954;20.118;2022-07-23T11:59:22;99953.87;;;31.54;39.77
35848;BME280;22332;51.954;20.118;2022-07-23T12:02:27;99951.33;;;31.57;39.61
35848;BME280;22332;51.954;20.118;2022-07-23T12:05:34;99942.50;;;31.55;39.10
35848;BME280;22332;51.954;20.118;2022-07-23T12:08:43;99938.91;;;31.61;40.04
35848;BME280;22332;51.954;20.118;2022-07-23T12:12:02;99926.77;;;31.74;38.60
35848;BME280;22332;51.954;20.118;2022-07-23T12:15:09;99920.11;;;31.80;39.04
35848;BME280;22332;51.954;20.118;2022-07-23T12:18:16;99916.60;;;31.94;38.33
35848;BME280;22332;51.954;20.118;2022-07-23T12:21:22;99910.10;;;31.99;38.16
35848;BME280;22332;51.954;20.118;2022-07-23T12:24:27;99900.76;;;32.00;38.88
35848;BME280;22332;51.954;20.118;2022-07-23T12:27:33;99897.04;;;32.05;38.95
35848;BME280;22332;51.954;20.118;2022-07-23T12:30:41;99890.84;;;32.06;38.78
35848;BME280;22332;51.954;20.118;2022-07-23T12:33:47;99885.20;;;32.10;38.62
35848;BME280;22332;51.954;20.118;2022-07-23T12:36:55;99879.98;;;32.17;38.56
35848;BME280;22332;51.954;20.118;2022-07-23T12:40:20;99880.31;;;32.17;38.22
35848;BME280;22332;51.954;20.118;2022-07-23T12:43:27;99882.55;;;32.10;38.38
35848;BME280;22332;51.954;20.118;2022-07-23T12:46:34;99889.88;;;32.08;38.38
35848;BME280;22332;51.954;20.118;2022-07-23T12:49:40;99894.45;;;32.08;38.30
35848;BME280;22332;51.954;20.118;2022-07-23T12:52:45;99893.06;;;32.09;38.30
35848;BME280;22332;51.954;20.118;2022-07-23T12:55:56;99881.04;;;32.08;38.29
35848;BME280;22332;51.954;20.118;2022-07-23T12:59:08;99874.38;;;32.06;38.06
35848;BME280;22332;51.954;20.118;2022-07-23T13:02:14;99870.55;;;32.05;38.12
35848;BME280;22332;51.954;20.118;2022-07-23T13:05:20;99866.92;;;32.04;38.01
35848;BME280;22332;51.954;20.118;2022-07-23T13:08:27;99860.11;;;32.02;38.10
35848;BME280;22332;51.954;20.118;2022-07-23T13:11:33;99865.94;;;32.03;37.82
35848;BME280;22332;51.954;20.118;2022-07-23T13:14:38;99863.71;;;32.02;38.11
35848;BME280;22332;51.954;20.118;2022-07-23T13:17:44;99861.63;;;32.00;37.85
35848;BME280;22332;51.954;20.118;2022-07-23T13:20:50;99860.18;;;31.92;37.80
35848;BME280;22332;51.954;20.118;2022-07-23T13:23:56;99868.16;;;31.76;38.07
35848;BME280;22332;51.954;20.118;2022-07-23T13:27:01;99878.45;;;31.55;38.30
35848;BME280;22332;51.954;20.118;2022-07-23T13:30:10;99884.68;;;31.31;38.13
35848;BME280;22332;51.954;20.118;2022-07-23T13:33:16;99908.27;;;31.02;38.39
35848;BME280;22332;51.954;20.118;2022-07-23T13:36:22;99996.74;;;30.50;39.27
35848;BME280;22332;51.954;20.118;2022-07-23T13:39:27;100037.86;;;29.05;41.78
35848;BME280;22332;51.954;20.118;2022-07-23T13:42:32;100045.46;;;27.79;44.38
35848;BME280;22332;51.954;20.118;2022-07-23T13:45:39;100059.14;;;26.75;48.76
35848;BME280;22332;51.954;20.118;2022-07-23T13:48:46;100088.67;;;25.54;52.82
35848;BME280;22332;51.954;20.118;2022-07-23T13:51:51;100127.65;;;23.96;60.95
35848;BME280;22332;51.954;20.118;2022-07-23T13:54:56;100136.52;;;22.77;62.33
35848;BME280;22332;51.954;20.118;2022-07-23T13:58:02;100153.31;;;21.67;70.46
35848;BME280;22332;51.954;20.118;2022-07-23T14:01:08;100166.42;;;20.59;73.84
35848;BME280;22332;51.954;20.118;2022-07-23T14:04:13;100177.80;;;20.04;78.35
35848;BME280;22332;51.954;20.118;2022-07-23T14:07:19;100153.80;;;19.66;80.73
35848;BME280;22332;51.954;20.118;2022-07-23T14:10:25;100174.35;;;19.50;82.32
35848;BME280;22332;51.954;20.118;2022-07-23T14:13:31;100183.45;;;19.43;82.99
35848;BME280;22332;51.954;20.118;2022-07-23T14:16:36;100192.86;;;19.38;82.10
35848;BME280;22332;51.954;20.118;2022-07-23T14:19:42;100206.48;;;19.38;82.73
35848;BME280;22332;51.954;20.118;2022-07-23T14:22:48;100208.71;;;19.31;86.51
35848;BME280;22332;51.954;20.118;2022-07-23T14:25:54;100193.20;;;19.21;85.69
35848;BME280;22332;51.954;20.118;2022-07-23T14:28:59;100194.79;;;19.19;85.87
35848;BME280;22332;51.954;20.118;2022-07-23T14:32:07;100213.86;;;19.15;85.51
35848;BME280;22332;51.954;20.118;2022-07-23T14:35:12;100245.86;;;19.14;81.84
35848;BME280;22332;51.954;20.118;2022-07-23T14:38:17;100275.17;;;19.23;79.70
35848;BME280;22332;51.954;20.118;2022-07-23T14:41:23;100304.27;;;19.40;78.45
35848;BME280;22332;51.954;20.118;2022-07-23T14:44:28;100284.22;;;19.50;80.55
35848;BME280;22332;51.954;20.118;2022-07-23T14:47:33;100241.35;;;19.43;83.42
35848;BME280;22332;51.954;20.118;2022-07-23T14:50:39;100225.14;;;19.29;83.39
35848;BME280;22332;51.954;20.118;2022-07-23T14:53:44;100222.58;;;19.29;83.02
35848;BME280;22332;51.954;20.118;2022-07-23T14:56:49;100223.95;;;19.29;82.99
35848;BME280;22332;51.954;20.118;2022-07-23T14:59:55;100224.89;;;19.32;81.25
35848;BME280;22332;51.954;20.118;2022-07-23T15:03:00;100235.58;;;19.35;80.18
35848;BME280;22332;51.954;20.118;2022-07-23T15:06:07;100242.52;;;19.43;81.33
35848;BME280;22332;51.954;20.118;2022-07-23T15:09:12;100247.69;;;19.42;79.51
35848;BME280;22332;51.954;20.118;2022-07-23T15:12:19;100256.44;;;19.42;80.91
35848;BME280;22332;51.954;20.118;2022-07-23T15:15:24;100247.79;;;19.31;79.81
35848;BME280;22332;51.954;20.118;2022-07-23T15:18:30;100248.27;;;19.25;81.75
35848;BME280;22332;51.954;20.118;2022-07-23T15:21:35;100250.64;;;19.22;80.38
35848;BME280;22332;51.954;20.118;2022-07-23T15:24:41;100242.29;;;19.33;80.49
35848;BME280;22332;51.954;20.118;2022-07-23T15:27:46;100221.39;;;19.52;80.75
35848;BME280;22332;51.954;20.118;2022-07-23T15:30:52;100198.46;;;19.79;80.68
35848;BME280;22332;51.954;20.118;2022-07-23T15:33:57;100191.11;;;20.07;80.92
35848;BME280;22332;51.954;20.118;2022-07-23T15:37:03;100181.39;;;20.25;80.23
35848;BME280;22332;51.954;20.118;2022-07-23T15:40:11;100168.20;;;20.37;79.87
35848;BME280;22332;51.954;20.118;2022-07-23T15:43:17;100142.00;;;20.50;80.01
35848;BME280;22332;51.954;20.118;2022-07-23T15:46:23;100132.75;;;20.63;80.20
35848;BME280;22332;51.954;20.118;2022-07-23T15:49:29;100116.37;;;20.70;80.07
35848;BME280;22332;51.954;20.118;2022-07-23T15:52:34;100095.17;;;20.75;80.60
35848;BME280;22332;51.954;20.118;2022-07-23T15:55:41;100081.40;;;20.80;81.03
35848;BME280;22332;51.954;20.118;2022-07-23T15:58:47;100086.19;;;20.92;80.96
35848;BME280;22332;51.954;20.118;2022-07-23T16:01:53;100094.98;;;21.23;80.85
35848;BME280;22332;51.954;20.118;2022-07-23T16:04:58;100082.63;;;21.51;80.45
35848;BME280;22332;51.954;20.118;2022-07-23T16:08:05;100080.70;;;21.76;80.02